Time;durP1;ratioP1;P1;durP2;ratioP2;P2;SDS_P1;SDS_P2;PMS_P1;PMS_P2;Temp;Humidity;BMP_temperature;BMP_pressure;BME280_temperature;BME280_humidity;BME280_pressure;Samples;Min_cycle;Max_cycle;Signal;HPM_P1;HPM_P2
2023/09/15 00:01:54;;;;;;;;;7.00;7.00;;;;;20.18;62.20;101329.66;5055550;28;45889;-40
2023/09/15 00:04:19;;;;;;;;;9.50;8.75;;;;;20.17;62.43;101327.94;5055824;28;45329;-40
2023/09/15 00:06:47;;;;;;;;;10.25;9.00;;;;;20.17;62.82;101325.25;5055599;28;49122;-39
2023/09/15 00:09:14;;;;;;;;;9.75;9.75;;;;;20.16;61.81;101315.47;5056086;28;45395;-39
2023/09/15 00:11:40;;;;;;;;;10.00;8.50;;;;;20.14;62.14;101309.47;5055711;28;46230;-40
2023/09/15 00:14:10;;;;;;;;;10.75;9.00;;;;;20.15;62.13;101326.50;5055807;28;45342;-40
2023/09/15 00:16:41;;;;;;;;;7.75;7.00;;;;;20.09;62.31;101322.69;5055882;28;45360;-39
2023/09/15 00:19:08;;;;;;;;;10.50;9.00;;;;;20.06;62.77;101323.09;5055805;28;45342;-38
2023/09/15 00:21:33;;;;;;;;;11.50;8.25;;;;;20.05;62.32;101318.72;5055855;28;45515;-39
2023/09/15 00:24:02;;;;;;;;;9.75;9.00;;;;;20.02;62.49;101321.81;5059143;28;45260;-40
2023/09/15 00:26:29;;;;;;;;;10.00;10.00;;;;;20.01;62.58;101317.41;5059355;28;45385;-37
2023/09/15 00:28:55;;;;;;;;;11.00;9.25;;;;;20.01;62.64;101319.28;5059402;28;45392;-38
2023/09/15 00:31:20;;;;;;;;;10.75;7.00;;;;;20.01;62.24;101312.03;5059009;28;47165;-40
2023/09/15 00:33:46;;;;;;;;;10.00;9.25;;;;;19.93;61.99;101304.06;5058982;28;45557;-39
2023/09/15 00:36:11;;;;;;;;;10.25;9.25;;;;;19.96;62.72;101309.06;5058905;28;45555;-40
2023/09/15 00:38:37;;;;;;;;;14.75;11.25;;;;;20.00;62.42;101313.06;5059182;28;45294;-40
2023/09/15 00:41:02;;;;;;;;;9.75;9.75;;;;;19.94;62.33;101303.06;5058306;28;46115;-40
2023/09/15 00:43:27;;;;;;;;;13.75;13.25;;;;;19.96;61.74;101303.69;5058910;28;45369;-40
2023/09/15 00:45:55;;;;;;;;;10.25;7.25;;;;;19.91;62.23;101300.72;5058838;28;45374;-40
2023/09/15 00:48:21;;;;;;;;;10.00;10.00;;;;;19.93;62.20;101301.34;5059116;28;45482;-39
2023/09/15 00:50:47;;;;;;;;;10.75;10.00;;;;;19.91;62.63;101306.97;5058101;28;46785;-43
2023/09/15 00:53:19;;;;;;;;;14.00;9.00;;;;;19.88;62.65;101301.94;5058641;28;45278;-40
2023/09/15 00:55:47;;;;;;;;;14.50;11.00;;;;;19.89;62.68;101303.63;5058744;28;45415;-39
2023/09/15 00:58:15;;;;;;;;;10.75;8.75;;;;;19.88;62.92;101293.84;5058936;28;45259;-39
2023/09/15 01:00:42;;;;;;;;;9.50;8.75;;;;;19.88;62.20;101306.50;5058222;28;46260;-40
2023/09/15 01:03:09;;;;;;;;;8.00;7.25;;;;;19.86;62.41;101308.59;5058393;28;45449;-39
2023/09/15 01:05:34;;;;;;;;;10.75;10.00;;;;;19.85;62.77;101304.22;5058550;28;45393;-39
2023/09/15 01:08:00;;;;;;;;;13.25;12.00;;;;;19.84;62.59;101299.81;5058154;28;45606;-40
2023/09/15 01:10:25;;;;;;;;;8.75;7.25;;;;;19.86;63.00;101295.09;5058463;28;45993;-40
2023/09/15 01:12:53;;;;;;;;;8.75;8.00;;;;;19.84;62.50;101295.25;5058466;28;45415;-40
2023/09/15 01:15:43;;;;;;;;;7.50;7.50;;;;;19.84;62.97;101294.44;5058458;28;45363;-39
2023/09/15 01:18:22;;;;;;;;;8.75;7.00;;;;;19.83;62.77;101296.28;5016295;28;45325;-40
2023/09/15 01:20:50;;;;;;;;;9.75;7.75;;;;;19.81;62.01;101300.25;5015830;28;46198;-40
2023/09/15 01:23:53;;;;;;;;;7.00;7.00;;;;;19.78;62.69;101295.22;5015870;28;45452;-40
2023/09/15 01:26:39;;;;;;;;;8.75;8.75;;;;;19.64;63.05;101272.66;5015881;28;45394;-39
2023/09/15 01:29:19;;;;;;;;;8.75;8.75;;;;;19.75;62.75;101292.91;5016216;28;45387;-39
2023/09/15 01:31:46;;;;;;;;;7.75;7.00;;;;;19.75;62.93;101292.91;5015760;28;46450;-38
2023/09/15 01:34:16;;;;;;;;;10.00;9.25;;;;;19.74;63.02;101293.94;5014829;28;45469;-40
2023/09/15 01:36:41;;;;;;;;;8.25;8.00;;;;;19.74;63.16;101292.06;5015712;28;45406;-39
2023/09/15 01:39:06;;;;;;;;;9.25;9.00;;;;;19.66;63.10;101274.13;5015200;28;45353;-40
2023/09/15 01:41:32;;;;;;;;;8.50;7.25;;;;;19.73;62.73;101282.31;5015326;28;46132;-40
2023/09/15 01:43:57;;;;;;;;;6.00;6.00;;;;;19.73;62.74;101279.59;5015725;28;45815;-40
2023/09/15 01:46:24;;;;;;;;;9.25;9.00;;;;;19.76;63.08;101276.50;5015685;28;45564;-40
2023/09/15 01:48:54;;;;;;;;;7.50;7.50;;;;;19.77;62.87;101282.75;5015844;28;45449;-39
2023/09/15 01:51:22;;;;;;;;;11.00;7.75;;;;;19.77;63.09;101280.06;5015076;28;45440;-39
2023/09/15 01:53:50;;;;;;;;;7.20;7.20;;;;;19.77;62.82;101278.19;5014806;28;45377;-38
2023/09/15 01:56:17;;;;;;;;;12.50;8.75;;;;;19.74;62.95;101269.63;5055023;28;45405;-39
2023/09/15 01:58:42;;;;;;;;;9.75;8.00;;;;;19.77;63.16;101274.66;5058071;28;45323;-45
2023/09/15 02:01:07;;;;;;;;;9.25;9.25;;;;;19.74;63.05;101277.75;5057093;28;46152;-40
2023/09/15 02:03:33;;;;;;;;;9.75;9.75;;;;;19.77;62.64;101282.75;5057659;28;45224;-42
2023/09/15 02:06:03;;;;;;;;;12.00;10.00;;;;;19.76;62.74;101281.06;5057631;28;45301;-42
2023/09/15 02:08:28;;;;;;;;;10.00;7.00;;;;;19.70;63.07;101269.19;5057856;28;45531;-43
2023/09/15 02:10:54;;;;;;;;;9.50;7.25;;;;;19.74;63.15;101277.75;5057476;28;46178;-39
2023/09/15 02:13:19;;;;;;;;;9.00;8.00;;;;;19.75;62.99;101282.94;5057528;28;45382;-42
2023/09/15 02:15:45;;;;;;;;;8.50;8.50;;;;;19.65;63.05;101261.66;5057126;28;45427;-41
2023/09/15 02:18:10;;;;;;;;;5.75;5.00;;;;;19.77;63.28;101283.59;5057940;28;45444;-40
2023/09/15 02:20:35;;;;;;;;;7.75;7.75;;;;;19.76;63.00;101279.19;5057386;28;45435;-42
2023/09/15 02:23:03;;;;;;;;;8.25;7.25;;;;;19.77;63.10;101280.06;5057180;28;45316;-39
2023/09/15 02:25:30;;;;;;;;;9.00;8.25;;;;;19.76;62.81;101278.38;5057431;28;45432;-39
2023/09/15 02:27:56;;;;;;;;;7.00;7.00;;;;;19.74;63.43;101277.75;5057490;28;45665;-45
2023/09/15 02:30:21;;;;;;;;;8.00;8.00;;;;;19.74;63.18;101273.16;5057213;28;46156;-39
2023/09/15 02:32:47;;;;;;;;;7.50;7.00;;;;;19.74;63.04;101272.34;5057289;28;45397;-38
2023/09/15 02:35:12;;;;;;;;;12.25;10.00;;;;;19.71;63.57;101272.72;5057194;28;45425;-40
2023/09/15 02:37:37;;;;;;;;;9.75;9.25;;;;;19.72;63.12;101268.97;5057418;28;45439;-39
2023/09/15 02:40:04;;;;;;;;;9.25;8.00;;;;;19.70;63.28;101271.88;5056932;28;46012;-39
2023/09/15 02:42:30;;;;;;;;;10.00;6.00;;;;;19.65;63.05;101269.78;5057264;28;45343;-40
2023/09/15 02:44:55;;;;;;;;;8.00;8.00;;;;;19.67;63.15;101272.25;5057268;28;45290;-38
2023/09/15 02:47:20;;;;;;;;;9.50;8.25;;;;;19.67;63.68;101265.00;5057403;28;45384;-39
2023/09/15 02:49:46;;;;;;;;;8.25;7.00;;;;;19.61;62.99;101264.94;5056772;28;46166;-39
2023/09/15 02:52:11;;;;;;;;;10.00;7.75;;;;;19.63;63.15;101265.59;5057107;28;45460;-40
2023/09/15 02:54:37;;;;;;;;;8.25;8.00;;;;;19.59;63.42;101259.72;5055548;28;45801;-39
2023/09/15 02:57:03;;;;;;;;;13.75;9.75;;;;;19.57;63.94;101258.25;5057129;28;45354;-40
2023/09/15 02:59:28;;;;;;;;;10.75;7.25;;;;;19.57;63.32;101259.06;5056242;28;46153;-40
2023/09/15 03:01:53;;;;;;;;;7.25;7.25;;;;;19.59;63.66;101261.56;5056520;28;45441;-38
2023/09/15 03:04:19;;;;;;;;;9.25;9.25;;;;;19.56;62.70;101262.81;5056875;28;45403;-40
2023/09/15 03:06:44;;;;;;;;;7.25;7.25;;;;;19.53;63.27;101260.50;5056905;28;45451;-39
2023/09/15 03:09:09;;;;;;;;;8.75;7.50;;;;;19.54;63.54;101261.31;5056529;28;46112;-39
2023/09/15 03:11:35;;;;;;;;;8.75;8.00;;;;;19.51;63.23;101259.84;5056358;28;49250;-40
2023/09/15 03:14:00;;;;;;;;;11.25;9.00;;;;;19.49;63.21;101259.19;5056600;28;45426;-40
2023/09/15 03:16:26;;;;;;;;;9.25;7.00;;;;;19.43;63.61;101239.22;5056862;28;45230;-40
2023/09/15 03:18:51;;;;;;;;;7.50;6.50;;;;;19.55;63.58;101257.59;5056231;28;49188;-40
2023/09/15 03:21:17;;;;;;;;;10.50;9.50;;;;;19.56;63.36;101261.97;5056409;28;45396;-40
2023/09/15 03:23:42;;;;;;;;;9.25;7.50;;;;;19.57;63.92;101250.97;5056642;28;45306;-40
2023/09/15 03:26:07;;;;;;;;;7.00;7.00;;;;;19.56;63.70;101257.41;5056638;28;45425;-39
2023/09/15 03:28:35;;;;;;;;;8.50;6.50;;;;;19.53;63.38;101249.69;5056133;28;46347;-40
2023/09/15 03:31:03;;;;;;;;;9.00;9.00;;;;;19.53;63.67;101254.25;5056225;28;45498;-39
2023/09/15 03:33:30;;;;;;;;;7.50;7.50;;;;;19.54;63.51;101242.44;5055177;28;45232;-40
2023/09/15 03:35:56;;;;;;;;;9.50;7.00;;;;;19.51;63.16;101240.09;5056083;28;45368;-39
2023/09/15 03:38:21;;;;;;;;;10.00;7.00;;;;;19.39;63.12;101215.53;5055991;28;45389;-37
2023/09/15 03:40:46;;;;;;;;;7.50;7.00;;;;;19.48;63.44;101233.25;5055959;28;45427;-38
2023/09/15 03:43:11;;;;;;;;;11.25;7.75;;;;;19.45;63.31;101239.03;5056361;28;45454;-39
2023/09/15 03:45:37;;;;;;;;;7.25;7.25;;;;;19.41;63.36;101235.03;5056044;28;45408;-40
2023/09/15 03:48:04;;;;;;;;;8.00;7.00;;;;;19.42;63.91;101239.41;5055351;28;50119;-39
2023/09/15 03:50:31;;;;;;;;;6.75;5.75;;;;;19.41;63.24;101235.03;5055804;28;45397;-40
2023/09/15 03:52:57;;;;;;;;;12.75;10.00;;;;;19.42;63.18;101247.50;5056063;28;45456;-39
2023/09/15 03:55:22;;;;;;;;;7.25;6.00;;;;;19.43;63.37;101243.78;5056147;28;45263;-40
2023/09/15 03:57:47;;;;;;;;;9.00;8.25;;;;;19.43;63.79;101239.22;5057754;28;46292;-38
2023/09/15 04:00:17;;;;;;;;;9.00;9.00;;;;;19.44;63.36;101235.50;5059607;28;45823;-40
2023/09/15 04:02:45;;;;;;;;;10.50;6.75;;;;;19.39;64.09;101229.84;5058701;28;45188;-38
2023/09/15 04:05:11;;;;;;;;;7.75;7.75;;;;;19.42;63.96;101223.22;5059616;28;45377;-40
2023/09/15 04:07:40;;;;;;;;;5.50;5.50;;;;;19.35;63.63;101222.34;5059411;28;45361;-39
2023/09/15 04:10:06;;;;;;;;;12.00;7.00;;;;;19.39;64.05;101223.63;5058923;28;45507;-40
2023/09/15 04:12:33;;;;;;;;;9.75;8.50;;;;;19.39;63.51;101223.63;5059228;28;45401;-39
2023/09/15 04:14:59;;;;;;;;;9.25;8.50;;;;;19.39;63.14;101223.63;5059431;28;45480;-38
2023/09/15 04:17:24;;;;;;;;;10.00;8.00;;;;;19.34;63.31;101212.56;5059282;28;46323;-37
2023/09/15 04:19:50;;;;;;;;;11.25;8.75;;;;;19.37;63.66;101218.41;5059120;28;45342;-39
2023/09/15 04:22:15;;;;;;;;;10.50;8.25;;;;;19.22;63.54;101193.38;5059137;28;45505;-39
2023/09/15 04:24:40;;;;;;;;;9.50;8.25;;;;;19.32;63.58;101204.66;5059517;28;45411;-38
2023/09/15 04:27:06;;;;;;;;;10.25;5.25;;;;;19.32;63.64;101209.22;5059047;28;46088;-39
2023/09/15 04:29:31;;;;;;;;;8.75;7.25;;;;;19.31;64.05;101205.69;5059070;28;45760;-39
2023/09/15 04:31:57;;;;;;;;;8.50;5.00;;;;;19.25;63.36;101203.75;5059155;28;45438;-39
2023/09/15 04:34:22;;;;;;;;;8.75;8.25;;;;;19.25;63.57;101202.91;5057942;28;45412;-41
2023/09/15 04:36:47;;;;;;;;;8.25;8.25;;;;;19.25;63.70;101205.63;5058910;28;50849;-39
2023/09/15 04:39:13;;;;;;;;;7.75;6.00;;;;;19.24;63.81;101204.78;5058769;28;45942;-39
2023/09/15 04:41:39;;;;;;;;;9.50;7.75;;;;;19.15;63.91;101189.75;5058981;28;45373;-39
2023/09/15 04:44:05;;;;;;;;;11.00;7.50;;;;;19.27;63.78;101203.59;5059259;28;45383;-38
2023/09/15 04:46:30;;;;;;;;;9.00;7.00;;;;;19.24;63.68;101198.56;5058650;28;45369;-41
2023/09/15 04:48:55;;;;;;;;;8.75;7.00;;;;;19.20;63.87;101185.44;5058760;28;45365;-40
2023/09/15 04:51:21;;;;;;;;;7.50;6.75;;;;;19.22;63.74;101192.53;5058266;28;47800;-40
2023/09/15 04:53:46;;;;;;;;;12.25;10.00;;;;;19.17;63.73;101183.16;5058471;28;45728;-40
2023/09/15 04:56:11;;;;;;;;;17.50;12.50;;;;;19.18;63.35;101189.38;5058093;28;50475;-40
2023/09/15 04:58:37;;;;;;;;;11.00;8.00;;;;;19.14;63.87;101185.41;5058337;28;45304;-40
2023/09/15 05:01:05;;;;;;;;;9.50;9.50;;;;;19.16;64.01;101183.34;5058508;28;45381;-39
2023/09/15 05:03:31;;;;;;;;;10.00;7.00;;;;;19.14;62.98;101180.00;5058968;28;45364;-41
2023/09/15 05:05:56;;;;;;;;;10.25;6.50;;;;;19.07;64.03;101176.41;5058223;28;47004;-40
2023/09/15 05:08:22;;;;;;;;;8.25;6.50;;;;;19.14;63.91;101183.53;5057447;28;45402;-39
2023/09/15 05:10:48;;;;;;;;;10.25;8.75;;;;;19.11;63.65;101189.31;5058390;28;45343;-40
2023/09/15 05:13:14;;;;;;;;;11.00;8.50;;;;;19.13;63.76;101197.19;5059004;28;45236;-38
2023/09/15 05:15:39;;;;;;;;;13.50;9.00;;;;;19.12;63.66;101195.53;5057787;28;46662;-38
2023/09/15 05:18:05;;;;;;;;;13.75;9.25;;;;;19.11;63.79;101201.97;5058229;28;45814;-38
2023/09/15 05:20:30;;;;;;;;;10.00;7.50;;;;;19.09;64.21;101210.25;5058658;28;45419;-39
2023/09/15 05:22:55;;;;;;;;;9.25;7.25;;;;;19.05;63.98;101206.25;5058421;28;45375;-39
2023/09/15 05:25:21;;;;;;;;;13.50;8.00;;;;;19.05;64.10;101208.97;5058113;28;45301;-40
2023/09/15 05:27:46;;;;;;;;;9.25;7.25;;;;;19.04;64.07;101209.97;5058108;28;45354;-39
2023/09/15 05:30:12;;;;;;;;;9.50;8.25;;;;;19.02;64.06;101201.25;5058340;28;45338;-39
2023/09/15 05:32:38;;;;;;;;;10.75;8.50;;;;;19.04;64.14;101206.44;5058307;28;45512;-40
2023/09/15 05:35:04;;;;;;;;;10.00;7.75;;;;;19.02;63.88;101206.63;5057720;28;46057;-37
2023/09/15 05:37:29;;;;;;;;;10.50;9.50;;;;;19.01;63.80;101202.28;5057790;28;45490;-39
2023/09/15 05:39:55;;;;;;;;;10.00;9.75;;;;;18.99;64.02;101200.78;5057853;28;45417;-38
2023/09/15 05:42:20;;;;;;;;;14.50;10.75;;;;;18.98;64.22;101212.59;5058264;28;45535;-39
2023/09/15 05:44:45;;;;;;;;;11.50;9.00;;;;;19.00;63.84;101199.75;5057533;28;46930;-39
2023/09/15 05:47:10;;;;;;;;;7.50;6.75;;;;;19.01;64.27;101223.84;5057866;28;45313;-39
2023/09/15 05:49:36;;;;;;;;;7.00;7.00;;;;;19.05;63.84;101206.25;5057946;28;45639;-38
2023/09/15 05:52:02;;;;;;;;;9.50;4.50;;;;;19.00;64.05;101197.06;5057956;28;45341;-39
2023/09/15 05:54:28;;;;;;;;;9.00;8.00;;;;;19.01;64.19;101202.28;5057653;28;47093;-40
2023/09/15 05:56:53;;;;;;;;;11.00;10.75;;;;;19.03;64.01;101192.13;5056562;28;45441;-39
2023/09/15 05:59:18;;;;;;;;;7.00;7.00;;;;;19.01;64.45;101202.28;5057899;28;45430;-40
2023/09/15 06:01:46;;;;;;;;;7.00;7.00;;;;;18.93;63.72;101187.06;5057921;28;45354;-40
2023/09/15 06:04:13;;;;;;;;;10.75;9.25;;;;;18.98;64.07;101208.03;5057685;28;45843;-40
2023/09/15 06:06:39;;;;;;;;;13.00;12.00;;;;;18.96;64.30;101207.38;5057436;28;45341;-39
2023/09/15 06:09:04;;;;;;;;;8.75;8.75;;;;;18.95;64.19;101203.03;5057754;28;45474;-38
2023/09/15 06:11:29;;;;;;;;;10.00;9.00;;;;;18.94;64.65;101195.97;5057702;28;45463;-41
2023/09/15 06:13:55;;;;;;;;;10.75;10.00;;;;;18.98;64.72;101209.91;5047988;28;45613;-38
2023/09/15 06:16:20;;;;;;;;;9.50;8.00;;;;;18.99;64.86;101212.41;5037284;28;45379;-40
2023/09/15 06:18:45;;;;;;;;;11.75;8.00;;;;;19.00;64.80;101211.38;5037407;28;45323;-39
2023/09/15 06:21:11;;;;;;;;;10.00;7.00;;;;;19.01;64.52;101204.16;5037209;28;45349;-39
2023/09/15 06:23:36;;;;;;;;;10.00;8.75;;;;;19.01;64.54;101209.53;5036386;28;45461;-39
2023/09/15 06:26:02;;;;;;;;;11.50;9.50;;;;;18.97;64.71;101203.69;5037022;28;45404;-39
2023/09/15 06:28:27;;;;;;;;;12.25;10.25;;;;;19.03;65.05;101208.31;5037211;28;45462;-40
2023/09/15 06:30:53;;;;;;;;;11.00;11.00;;;;;19.05;64.60;101205.44;5037352;28;45290;-39
2023/09/15 06:33:18;;;;;;;;;14.25;13.25;;;;;19.07;64.99;101204.19;5037057;28;46054;-40
2023/09/15 06:35:44;;;;;;;;;11.00;8.75;;;;;19.11;64.75;101205.50;5036830;28;45329;-40
2023/09/15 06:38:11;;;;;;;;;11.25;8.75;;;;;19.13;64.65;101203.44;5037169;28;45414;-40
2023/09/15 06:40:36;;;;;;;;;9.00;7.00;;;;;19.13;64.42;101195.38;5037177;28;45441;-39
2023/09/15 06:43:07;;;;;;;;;9.75;9.75;;;;;19.18;64.52;101201.00;5036662;28;46038;-39
2023/09/15 06:45:34;;;;;;;;;9.75;8.00;;;;;19.27;64.09;101201.72;5036842;28;45442;-39
2023/09/15 06:47:59;;;;;;;;;9.75;9.00;;;;;19.28;64.40;101197.97;5036982;28;45369;-40
2023/09/15 06:50:25;;;;;;;;;15.00;13.25;;;;;19.31;63.99;101204.88;5037232;28;45370;-44
2023/09/15 06:52:51;;;;;;;;;9.50;9.50;;;;;19.33;64.02;101205.50;5036426;28;46159;-39
2023/09/15 06:55:16;;;;;;;;;12.25;9.50;;;;;19.39;63.95;101197.47;5036881;28;45433;-41
2023/09/15 06:57:41;;;;;;;;;10.50;9.00;;;;;19.43;63.76;101201.47;5037027;28;45420;-41
2023/09/15 07:00:07;;;;;;;;;8.00;8.00;;;;;19.50;64.06;101203.38;5036954;28;45304;-40
2023/09/15 07:02:32;;;;;;;;;8.75;8.25;;;;;19.57;63.82;101206.97;5036573;28;45432;-39
2023/09/15 07:04:58;;;;;;;;;14.75;10.75;;;;;19.61;63.61;101208.28;5036596;28;45382;-40
2023/09/15 07:07:23;;;;;;;;;12.75;11.00;;;;;19.60;63.63;101196.63;5036054;28;45388;-40
2023/09/15 07:09:50;;;;;;;;;13.50;8.25;;;;;19.63;63.73;101201.63;5037079;28;45576;-40
2023/09/15 07:12:16;;;;;;;;;11.75;11.75;;;;;19.56;63.19;101184.53;5036321;28;46952;-43
2023/09/15 07:14:41;;;;;;;;;13.00;9.25;;;;;19.65;63.52;101199.59;5036674;28;45396;-41
2023/09/15 07:17:06;;;;;;;;;9.00;8.25;;;;;19.67;63.16;101200.22;5036192;28;45822;-38
2023/09/15 07:19:32;;;;;;;;;10.00;9.00;;;;;19.74;63.11;101204.84;5036690;28;45431;-42
2023/09/15 07:21:57;;;;;;;;;12.50;10.00;;;;;19.83;63.23;101199.09;5036362;28;46345;-40
2023/09/15 07:24:22;;;;;;;;;11.25;9.25;;;;;19.98;62.52;101192.78;5036445;28;45801;-39
2023/09/15 07:26:48;;;;;;;;;8.50;8.50;;;;;20.16;62.06;101191.22;5036504;28;45423;-39
2023/09/15 07:29:13;;;;;;;;;12.00;10.50;;;;;21.06;60.48;101180.38;5036952;28;45411;-39
2023/09/15 07:31:42;;;;;;;;;13.25;11.25;;;;;22.27;57.39;101166.63;5035237;28;45405;-39
2023/09/15 07:34:08;;;;;;;;;8.00;8.00;;;;;23.25;55.67;101169.06;5036090;28;45573;-44
2023/09/15 07:36:34;;;;;;;;;12.00;11.00;;;;;23.39;54.24;101176.06;5036343;28;45334;-43
2023/09/15 07:38:59;;;;;;;;;14.25;8.25;;;;;23.39;53.92;101179.59;5036414;28;45455;-41
2023/09/15 07:41:24;;;;;;;;;9.00;9.00;;;;;23.11;54.89;101169.16;5035770;28;52438;-42
2023/09/15 07:43:53;;;;;;;;;13.25;10.00;;;;;22.76;55.59;101163.28;5036187;28;45340;-42
2023/09/15 07:46:19;;;;;;;;;11.00;9.00;;;;;22.55;55.29;101177.16;5036297;28;45385;-38
2023/09/15 07:48:44;;;;;;;;;10.00;9.50;;;;;22.32;56.02;101183.06;5045098;28;45399;-39
2023/09/15 07:51:13;;;;;;;;;8.25;8.25;;;;;22.05;56.59;101177.69;5055785;28;46886;-39
2023/09/15 07:53:39;;;;;;;;;9.80;9.40;;;;;21.96;57.41;101173.56;5055507;28;45416;-39
2023/09/15 07:56:04;;;;;;;;;10.50;10.25;;;;;21.82;57.25;101174.59;5051689;28;45387;-39
2023/09/15 07:58:30;;;;;;;;;9.75;9.25;;;;;21.78;57.58;101176.06;5035173;28;45349;-39
2023/09/15 08:00:57;;;;;;;;;11.75;10.00;;;;;21.76;57.57;101167.34;5049353;28;45423;-39
2023/09/15 08:03:22;;;;;;;;;11.00;10.40;;;;;21.85;57.42;101163.34;5053066;28;45642;-40
2023/09/15 08:05:47;;;;;;;;;13.50;10.75;;;;;21.95;57.67;101161.03;5053092;28;45484;-39
2023/09/15 08:08:13;;;;;;;;;9.75;9.00;;;;;23.09;55.27;101157.69;5053124;28;45545;-39
2023/09/15 08:10:38;;;;;;;;;9.25;9.25;;;;;25.13;51.00;101146.72;5053058;28;46097;-40
2023/09/15 08:13:03;;;;;;;;;9.00;9.00;;;;;26.85;46.08;101132.56;5052923;28;45515;-41
2023/09/15 08:15:29;;;;;;;;;9.75;9.00;;;;;28.18;43.88;101145.56;5053000;28;46522;-41
2023/09/15 08:17:54;;;;;;;;;9.25;8.00;;;;;29.26;41.88;101136.63;5053327;28;45771;-40
2023/09/15 08:20:21;;;;;;;;;11.25;9.75;;;;;29.82;41.51;101140.63;5052790;28;45417;-41
2023/09/15 08:22:47;;;;;;;;;10.60;8.80;;;;;28.73;44.18;101143.78;5052904;28;45428;-42
2023/09/15 08:25:12;;;;;;;;;8.25;8.25;;;;;28.46;42.71;101143.75;5053088;28;45502;-40
2023/09/15 08:27:38;;;;;;;;;10.25;9.25;;;;;29.89;39.82;101145.06;5052776;28;45481;-40
2023/09/15 08:30:04;;;;;;;;;11.50;7.50;;;;;31.26;36.91;101144.63;5052898;28;46512;-39
2023/09/15 08:32:31;;;;;;;;;11.60;7.40;;;;;32.36;36.40;101137.53;5052504;28;45428;-40
2023/09/15 08:34:57;;;;;;;;;8.00;5.00;;;;;33.15;34.14;101143.97;5052613;28;45465;-40
2023/09/15 08:37:23;;;;;;;;;10.40;7.60;;;;;33.69;33.34;101141.00;5053006;28;45441;-42
2023/09/15 08:39:48;;;;;;;;;7.25;6.75;;;;;34.27;31.91;101153.88;5040818;28;46613;-41
2023/09/15 08:42:23;;;;;;;;;8.00;8.00;;;;;34.59;32.10;101138.56;5032649;28;45435;-40
2023/09/15 08:44:49;;;;;;;;;11.60;7.40;;;;;35.06;31.23;101142.28;5036054;28;45365;-42
2023/09/15 08:47:15;;;;;;;;;10.60;9.00;;;;;35.74;30.35;101156.31;5036525;28;45545;-40
2023/09/15 08:49:43;;;;;;;;;9.20;8.40;;;;;35.96;29.98;101157.56;5036019;28;47103;-39
2023/09/15 08:52:09;;;;;;;;;9.60;7.80;;;;;36.14;29.72;101158.59;5035393;28;45395;-40
2023/09/15 08:54:35;;;;;;;;;9.20;7.40;;;;;35.95;29.55;101159.50;5035637;28;45462;-43
2023/09/15 08:57:01;;;;;;;;;10.50;9.00;;;;;35.54;30.01;101159.47;5036234;28;45493;-40
2023/09/15 08:59:27;;;;;;;;;8.20;8.20;;;;;35.29;30.24;101141.34;5035682;28;46120;-46
2023/09/15 09:01:53;;;;;;;;;6.80;5.80;;;;;35.03;30.63;101148.44;5035721;28;45539;-39
2023/09/15 09:04:18;;;;;;;;;10.00;8.25;;;;;34.94;32.74;101146.31;5033899;28;45537;-40
2023/09/15 09:06:45;;;;;;;;;9.00;9.00;;;;;35.29;30.43;101152.41;5036136;28;45469;-38
2023/09/15 09:09:13;;;;;;;;;8.60;7.80;;;;;35.47;30.05;101137.72;5035657;28;46327;-38
2023/09/15 09:11:39;;;;;;;;;7.40;7.00;;;;;35.42;30.55;101139.72;5035374;28;45476;-41
2023/09/15 09:14:10;;;;;;;;;8.50;7.00;;;;;35.23;30.57;101142.56;5035785;28;45716;-40
2023/09/15 09:16:37;;;;;;;;;9.00;9.00;;;;;35.19;30.97;101130.47;5035831;28;45844;-38
2023/09/15 09:19:06;;;;;;;;;10.40;10.40;;;;;35.41;30.20;101133.38;5035395;28;46294;-41
2023/09/15 09:21:32;;;;;;;;;8.00;8.00;;;;;35.66;30.32;101128.53;5034938;28;45466;-40
2023/09/15 09:23:58;;;;;;;;;9.00;8.60;;;;;35.90;29.73;101129.16;5035606;28;45410;-40
2023/09/15 09:26:24;;;;;;;;;10.00;6.25;;;;;36.11;29.10;101120.44;5035803;28;45899;-40
2023/09/15 09:28:54;;;;;;;;;9.00;7.20;;;;;36.26;29.14;101119.31;5035173;28;46297;-40
2023/09/15 09:31:21;;;;;;;;;7.80;7.40;;;;;36.75;28.90;101114.84;5048274;28;45446;-39
2023/09/15 09:33:46;;;;;;;;;8.20;7.20;;;;;37.77;29.12;101126.94;5055476;28;45475;-40
2023/09/15 09:36:14;;;;;;;;;9.50;8.75;;;;;39.63;25.95;101122.44;5055640;28;45519;-39
2023/09/15 09:38:45;;;;;;;;;8.00;8.00;;;;;41.92;23.55;101135.78;5055297;28;45450;-40
2023/09/15 09:41:12;;;;;;;;;8.40;6.80;;;;;43.58;21.77;101135.47;5055028;28;45473;-40
2023/09/15 09:43:39;;;;;;;;;7.60;7.20;;;;;44.98;20.39;101126.19;5055068;28;45615;-40
2023/09/15 09:46:05;;;;;;;;;9.40;8.00;;;;;45.82;18.96;101120.88;5055719;28;45477;-40
2023/09/15 09:48:33;;;;;;;;;8.20;7.60;;;;;46.83;17.72;101123.84;5054881;28;45463;-39
2023/09/15 09:51:01;;;;;;;;;12.20;12.00;;;;;47.63;17.67;101119.41;5031464;28;45485;-44
2023/09/15 09:53:28;;;;;;;;;9.00;6.00;;;;;48.29;19.16;101124.28;5035087;28;45493;-41
2023/09/15 09:55:54;;;;;;;;;6.80;6.60;;;;;49.00;16.20;101116.06;5034410;28;45481;-42
2023/09/15 09:58:21;;;;;;;;;6.60;6.60;;;;;49.86;15.77;101118.97;5033938;28;46591;-40
2023/09/15 10:00:50;;;;;;;;;4.40;4.40;;;;;50.48;14.87;101111.88;5033030;28;45417;-40
2023/09/15 10:03:17;;;;;;;;;5.40;5.40;;;;;50.56;14.96;101108.59;5035373;28;45627;-39
2023/09/15 10:05:42;;;;;;;;;9.40;6.20;;;;;51.11;14.41;101107.06;5034961;28;45399;-40
2023/09/15 10:08:09;;;;;;;;;6.25;3.25;;;;;51.55;14.77;101105.53;5034612;28;45969;-40
2023/09/15 10:10:41;;;;;;;;;5.20;5.20;;;;;51.87;14.57;101088.13;5034523;28;46561;-40
2023/09/15 10:13:08;;;;;;;;;6.00;6.00;;;;;52.13;16.26;101101.66;5034568;28;45746;-40
2023/09/15 10:15:35;;;;;;;;;6.40;5.00;;;;;52.34;14.00;101099.75;5034671;28;45440;-40
2023/09/15 10:18:02;;;;;;;;;7.00;4.60;;;;;52.84;13.53;101077.13;5033779;28;45915;-39
2023/09/15 10:20:28;;;;;;;;;7.20;4.60;;;;;52.61;13.42;101099.84;5034507;28;46604;-40
2023/09/15 10:22:54;;;;;;;;;6.00;6.00;;;;;53.09;12.81;101088.13;5034436;28;45511;-39
2023/09/15 10:25:21;;;;;;;;;5.80;5.80;;;;;53.25;14.78;101089.53;5034486;28;45381;-40
2023/09/15 10:27:46;;;;;;;;;4.60;4.40;;;;;53.35;15.47;101088.50;5033978;28;45432;-39
2023/09/15 10:30:13;;;;;;;;;5.60;5.60;;;;;53.51;14.31;101088.63;5034349;28;45468;-40
2023/09/15 10:32:39;;;;;;;;;7.25;5.75;;;;;53.78;12.55;101071.47;5034171;28;45845;-40
2023/09/15 10:35:06;;;;;;;;;4.40;4.40;;;;;53.82;11.97;101062.88;5034292;28;46018;-39
2023/09/15 10:37:34;;;;;;;;;6.80;6.80;;;;;54.03;12.95;101055.97;5034264;28;45746;-38
2023/09/15 10:40:00;;;;;;;;;7.60;5.00;;;;;54.03;14.70;101064.50;5034030;28;46065;-40
2023/09/15 10:42:26;;;;;;;;;8.50;7.00;;;;;54.08;12.72;101044.06;5034129;28;45460;-40
2023/09/15 10:44:51;;;;;;;;;6.25;5.25;;;;;54.36;12.59;101050.34;5034225;28;45465;-41
2023/09/15 10:47:18;;;;;;;;;6.00;4.50;;;;;54.44;12.05;101041.19;5033004;28;46443;-39
2023/09/15 10:49:53;;;;;;;;;6.00;6.00;;;;;54.14;12.48;101042.28;5033705;28;45381;-40
2023/09/15 10:52:39;;;;;;;;;5.25;5.25;;;;;54.42;13.46;101038.00;5034245;28;45951;-39
2023/09/15 10:55:05;;;;;;;;;5.60;5.00;;;;;54.57;12.09;101022.19;5033589;28;45542;-40
2023/09/15 10:57:36;;;;;;;;;5.80;5.60;;;;;53.99;12.24;101027.56;5033734;28;46189;-40
2023/09/15 11:00:06;;;;;;;;;7.60;5.80;;;;;54.10;12.14;101024.47;5033674;28;45520;-40
2023/09/15 11:02:34;;;;;;;;;6.40;6.40;;;;;53.85;13.13;101028.63;5033859;28;45354;-40
2023/09/15 11:05:00;;;;;;;;;6.50;4.50;;;;;53.88;12.54;101014.81;5034010;28;45958;-39
2023/09/15 11:07:26;;;;;;;;;6.25;6.25;;;;;53.94;12.73;101024.41;5033339;28;47128;-41
2023/09/15 11:09:56;;;;;;;;;4.60;4.60;;;;;54.14;11.86;101015.84;5032829;28;45400;-39
2023/09/15 11:12:21;;;;;;;;;6.00;6.00;;;;;53.87;11.83;101008.31;5034004;28;45540;-40
2023/09/15 11:14:46;;;;;;;;;5.50;4.25;;;;;53.74;11.83;101002.47;5033033;28;45441;-39
2023/09/15 11:17:12;;;;;;;;;4.00;4.00;;;;;53.77;12.22;100997.91;5033253;28;46332;-43
2023/09/15 11:19:38;;;;;;;;;4.25;4.25;;;;;53.88;12.56;100994.88;5033294;28;45472;-40